createdAt,value
2017-07-19T00:01:47.686Z,6.57
2017-07-19T00:04:15.229Z,6.93
2017-07-19T00:06:42.773Z,5.80
2017-07-19T00:09:10.299Z,7.10
2017-07-19T00:11:37.866Z,7.47
2017-07-19T00:14:05.389Z,7.50
2017-07-19T00:16:32.952Z,6.63
2017-07-19T00:19:01.259Z,6.87
2017-07-19T00:21:28.768Z,6.50
2017-07-19T00:23:56.318Z,6.83
2017-07-19T00:26:23.878Z,5.90
2017-07-19T00:28:51.407Z,7.87
2017-07-19T00:31:18.923Z,7.03
2017-07-19T00:33:47.257Z,6.90
2017-07-19T00:36:14.774Z,6.87
2017-07-19T00:38:42.299Z,6.93
2017-07-19T00:41:10.157Z,7.40
2017-07-19T00:43:37.687Z,8.20
2017-07-19T00:46:05.199Z,7.60
2017-07-19T00:48:32.724Z,7.53
2017-07-19T00:51:00.223Z,7.73
2017-07-19T00:53:28.513Z,8.10
2017-07-19T00:55:56.327Z,7.30
2017-07-19T00:58:23.833Z,8.50
2017-07-19T01:00:51.355Z,7.50
2017-07-19T01:03:19.309Z,7.50
2017-07-19T01:05:46.834Z,7.37
2017-07-19T01:08:14.347Z,7.90
2017-07-19T01:10:41.885Z,7.47
2017-07-19T01:13:09.433Z,7.80
2017-07-19T01:15:36.955Z,7.83
2017-07-19T01:18:04.742Z,7.80
2017-07-19T01:20:32.278Z,8.10
2017-07-19T01:22:59.806Z,7.60
2017-07-19T01:25:27.671Z,7.87
2017-07-19T01:27:55.183Z,8.07
2017-07-19T01:30:22.692Z,7.77
2017-07-19T01:32:50.248Z,8.33
2017-07-19T01:35:17.762Z,7.63
2017-07-19T01:37:45.325Z,8.10
2017-07-19T01:40:12.854Z,7.90
2017-07-19T01:42:40.381Z,8.50
2017-07-19T01:45:07.906Z,8.77
2017-07-19T01:47:35.463Z,7.60
2017-07-19T01:50:03.020Z,7.97
2017-07-19T01:52:30.542Z,8.60
2017-07-19T01:54:58.097Z,8.93
2017-07-19T01:57:25.619Z,8.20
2017-07-19T01:59:53.150Z,11.37
2017-07-19T02:02:21.168Z,8.30
2017-07-19T02:04:48.701Z,8.13
2017-07-19T02:07:16.255Z,9.23
2017-07-19T02:09:43.796Z,8.03
2017-07-19T02:12:11.324Z,7.90
2017-07-19T02:14:39.240Z,8.10
2017-07-19T02:17:06.762Z,7.40
2017-07-19T02:19:34.291Z,8.53
2017-07-19T02:22:02.219Z,9.83
2017-07-19T02:24:29.748Z,7.87
2017-07-19T02:26:57.283Z,8.67
2017-07-19T02:29:25.089Z,8.30
2017-07-19T02:31:52.616Z,9.20
2017-07-19T02:34:20.150Z,8.60
2017-07-19T02:36:48.210Z,8.57
2017-07-19T02:39:15.742Z,9.90
2017-07-19T02:41:43.270Z,8.10
2017-07-19T02:44:10.809Z,8.40
2017-07-19T02:46:39.115Z,9.00
2017-07-19T02:49:06.665Z,8.30
2017-07-19T02:51:34.210Z,8.87
2017-07-19T02:54:02.496Z,8.37
2017-07-19T02:56:30.031Z,8.50
2017-07-19T02:58:57.573Z,8.80
2017-07-19T03:01:25.102Z,8.90
2017-07-19T03:03:52.653Z,9.70
2017-07-19T03:06:20.190Z,9.20
2017-07-19T03:08:47.728Z,11.13
2017-07-19T03:11:15.251Z,9.50
2017-07-19T03:13:42.958Z,9.53
2017-07-19T03:16:11.291Z,9.40
2017-07-19T03:18:38.843Z,11.10
2017-07-19T03:21:06.693Z,9.90
2017-07-19T03:23:34.218Z,9.40
2017-07-19T03:26:02.509Z,10.80
2017-07-19T03:28:30.034Z,9.87
2017-07-19T03:30:57.558Z,9.70
2017-07-19T03:33:25.105Z,10.50
2017-07-19T03:35:52.638Z,10.13
2017-07-19T03:38:20.442Z,10.23
2017-07-19T03:40:47.975Z,10.30
2017-07-19T03:43:15.480Z,9.73
2017-07-19T03:45:43.034Z,9.67
2017-07-19T03:48:10.576Z,10.00
2017-07-19T03:50:38.117Z,9.53
2017-07-19T03:53:05.664Z,10.03
2017-07-19T03:55:33.225Z,10.77
2017-07-19T03:58:00.743Z,10.83
2017-07-19T04:00:28.548Z,11.90
2017-07-19T04:02:56.069Z,10.43
2017-07-19T04:05:23.588Z,11.17
2017-07-19T04:07:51.403Z,10.50
2017-07-19T04:10:18.951Z,10.60
2017-07-19T04:12:46.469Z,9.47
2017-07-19T04:15:14.100Z,10.50
2017-07-19T04:17:42.900Z,10.93
2017-07-19T04:20:10.901Z,10.37
2017-07-19T04:22:40.455Z,10.90
2017-07-19T04:25:11.196Z,9.73
2017-07-19T04:27:38.714Z,9.63
2017-07-19T04:30:06.452Z,10.17
2017-07-19T04:32:34.361Z,10.00
2017-07-19T04:35:02.015Z,9.53
2017-07-19T04:37:31.917Z,10.40
2017-07-19T04:39:59.488Z,9.77
2017-07-19T04:42:27.043Z,10.07
2017-07-19T04:44:54.615Z,10.23
2017-07-19T04:47:22.543Z,9.63
2017-07-19T04:49:50.791Z,9.10
2017-07-19T04:52:18.334Z,8.60
2017-07-19T04:54:46.169Z,8.87
2017-07-19T04:57:13.691Z,8.43
2017-07-19T04:59:41.197Z,8.60
2017-07-19T05:02:08.752Z,9.27
2017-07-19T05:04:36.446Z,10.00
2017-07-19T05:07:03.981Z,8.63
2017-07-19T05:09:33.065Z,8.90
2017-07-19T05:12:00.653Z,9.40
2017-07-19T05:14:28.199Z,9.93
2017-07-19T05:16:55.977Z,9.30
2017-07-19T05:19:23.518Z,8.80
2017-07-19T05:21:51.081Z,9.30
2017-07-19T05:24:18.639Z,9.90
2017-07-19T05:26:46.178Z,9.90
2017-07-19T05:29:13.788Z,8.93
2017-07-19T05:31:41.449Z,8.80
2017-07-19T05:34:08.978Z,8.60
2017-07-19T05:36:36.503Z,8.67
2017-07-19T05:39:04.050Z,9.07
2017-07-19T05:41:31.687Z,8.47
2017-07-19T05:43:59.332Z,8.17
2017-07-19T05:46:26.872Z,8.17
2017-07-19T05:48:54.414Z,7.60
2017-07-19T05:51:21.966Z,7.57
2017-07-19T05:53:49.503Z,8.00
2017-07-19T05:56:17.038Z,6.80
2017-07-19T05:58:44.577Z,7.57
2017-07-19T06:01:12.344Z,9.50
2017-07-19T06:03:39.867Z,7.70
2017-07-19T06:06:07.382Z,8.30
2017-07-19T06:08:34.930Z,6.97
2017-07-19T06:11:03.223Z,8.40
2017-07-19T06:13:30.761Z,7.90
2017-07-19T06:15:58.299Z,7.80
2017-07-19T06:18:25.821Z,7.47
2017-07-19T06:20:53.346Z,6.90
2017-07-19T06:23:21.183Z,7.30
2017-07-19T06:25:48.680Z,7.37
2017-07-19T06:28:17.027Z,7.60
2017-07-19T06:30:44.556Z,7.20
2017-07-19T06:33:12.058Z,7.33
2017-07-19T06:35:39.593Z,6.43
2017-07-19T06:38:07.119Z,6.57
2017-07-19T06:40:34.653Z,6.10
2017-07-19T06:43:02.182Z,7.00
2017-07-19T06:45:29.729Z,6.20
2017-07-19T06:47:57.257Z,6.70
2017-07-19T06:50:24.764Z,5.73
2017-07-19T06:52:52.312Z,6.63
2017-07-19T06:55:19.837Z,6.33
2017-07-19T06:57:47.394Z,6.30
2017-07-19T07:00:15.295Z,6.13
2017-07-19T07:02:42.817Z,6.33
2017-07-19T07:05:10.346Z,6.57
2017-07-19T07:07:37.868Z,6.30
2017-07-19T07:10:05.402Z,5.90
2017-07-19T07:12:32.918Z,6.00
2017-07-19T07:15:00.450Z,6.20
2017-07-19T07:17:27.978Z,5.80
2017-07-19T07:19:55.513Z,5.80
2017-07-19T07:22:23.043Z,5.93
2017-07-19T07:24:51.345Z,5.60
2017-07-19T07:27:18.918Z,5.30
2017-07-19T07:29:46.447Z,6.40
2017-07-19T07:32:13.959Z,6.10
2017-07-19T07:34:41.501Z,5.47
2017-07-19T07:37:09.023Z,5.77
2017-07-19T07:39:36.560Z,5.20
2017-07-19T07:42:04.093Z,5.43
2017-07-19T07:44:31.643Z,5.13
2017-07-19T07:46:59.191Z,5.03
2017-07-19T07:49:26.760Z,6.30
2017-07-19T07:51:54.292Z,5.77
2017-07-19T07:54:21.850Z,5.83
2017-07-19T07:56:49.438Z,6.00
2017-07-19T07:59:16.968Z,5.73
2017-07-19T08:01:44.895Z,4.93
2017-07-19T08:04:12.710Z,5.90
2017-07-19T08:06:40.258Z,5.43
2017-07-19T08:09:08.093Z,6.00
2017-07-19T08:11:35.608Z,5.40
2017-07-19T08:14:03.157Z,5.80
2017-07-19T08:16:30.951Z,5.60
2017-07-19T08:21:25.170Z,5.67
2017-07-19T08:23:52.733Z,6.07
2017-07-19T08:26:21.030Z,6.00
2017-07-19T08:28:48.541Z,6.13
2017-07-19T08:31:16.084Z,6.20
2017-07-19T08:33:43.641Z,5.17
2017-07-19T08:36:11.189Z,6.10
2017-07-19T08:38:38.976Z,6.53
2017-07-19T08:41:06.515Z,5.30
2017-07-19T08:43:34.869Z,6.07
2017-07-19T08:46:02.705Z,6.10
2017-07-19T08:48:30.253Z,5.60
2017-07-19T08:50:57.801Z,5.70
2017-07-19T08:53:25.636Z,6.10
2017-07-19T08:55:53.168Z,7.07
2017-07-19T08:58:20.702Z,5.77
2017-07-19T09:00:48.509Z,5.80
2017-07-19T09:03:16.076Z,5.33
2017-07-19T09:05:43.637Z,4.70
2017-07-19T09:08:11.178Z,5.53
2017-07-19T09:10:38.751Z,5.30
2017-07-19T09:13:06.279Z,5.40
2017-07-19T09:15:34.583Z,5.83
2017-07-19T09:18:02.123Z,5.23
2017-07-19T09:20:29.679Z,5.50
2017-07-19T09:22:58.342Z,5.83
2017-07-19T09:25:25.865Z,5.20
2017-07-19T09:27:53.390Z,5.43
2017-07-19T09:30:21.329Z,5.23
2017-07-19T09:32:48.867Z,5.50
2017-07-19T09:35:16.385Z,5.70
2017-07-19T09:37:43.968Z,5.10
2017-07-19T09:40:11.497Z,5.90
2017-07-19T09:42:39.039Z,5.50
2017-07-19T09:45:07.336Z,5.27
2017-07-19T09:47:34.863Z,4.93
2017-07-19T09:50:02.389Z,5.27
2017-07-19T09:52:29.940Z,5.27
2017-07-19T09:54:57.494Z,5.13
2017-07-19T09:57:25.039Z,5.17
2017-07-19T09:59:52.567Z,5.37
2017-07-19T10:02:20.118Z,5.07
2017-07-19T10:04:47.636Z,5.20
2017-07-19T10:07:15.175Z,4.93
2017-07-19T10:09:43.081Z,5.70
2017-07-19T10:12:10.626Z,5.20
2017-07-19T10:14:38.152Z,5.43
2017-07-19T10:17:05.980Z,5.00
2017-07-19T10:19:33.541Z,5.57
2017-07-19T10:22:01.105Z,5.50
2017-07-19T10:24:29.084Z,5.73
2017-07-19T10:26:57.406Z,5.87
2017-07-19T10:29:24.944Z,5.57
2017-07-19T10:31:52.799Z,5.90
2017-07-19T10:34:20.344Z,5.10
2017-07-19T10:36:48.641Z,6.00
2017-07-19T10:39:16.691Z,5.47
2017-07-19T10:41:44.993Z,5.40
2017-07-19T10:44:12.513Z,5.70
2017-07-19T10:46:40.480Z,5.70
2017-07-19T10:49:08.021Z,5.67
2017-07-19T10:51:35.543Z,5.57
2017-07-19T10:54:03.477Z,5.50
2017-07-19T10:56:31.884Z,5.43
2017-07-19T10:58:59.400Z,5.93
2017-07-19T11:01:27.270Z,5.10
2017-07-19T11:03:54.808Z,4.90
2017-07-19T11:06:22.340Z,4.80
2017-07-19T11:08:50.231Z,5.50
2017-07-19T11:11:17.766Z,4.93
2017-07-19T11:13:45.297Z,4.70
2017-07-19T11:16:12.836Z,5.23
2017-07-19T11:18:41.154Z,4.77
2017-07-19T11:21:08.706Z,4.87
2017-07-19T11:23:36.256Z,4.60
2017-07-19T11:26:03.781Z,4.80
2017-07-19T11:28:31.332Z,5.70
2017-07-19T11:30:58.867Z,5.27
2017-07-19T11:33:26.447Z,5.17
2017-07-19T11:35:53.973Z,4.83
2017-07-19T11:38:21.929Z,4.80
2017-07-19T11:40:49.451Z,5.00
2017-07-19T11:43:16.993Z,5.30
2017-07-19T11:45:44.941Z,4.63
2017-07-19T11:48:12.482Z,5.00
2017-07-19T11:50:40.027Z,5.00
2017-07-19T11:53:07.584Z,4.30
2017-07-19T11:55:35.106Z,5.10
2017-07-19T11:58:02.638Z,4.97
2017-07-19T12:00:30.172Z,5.20
2017-07-19T12:02:57.730Z,5.00
2017-07-19T12:05:25.255Z,4.50
2017-07-19T12:07:52.806Z,4.67
2017-07-19T12:10:20.454Z,5.40
2017-07-19T12:12:47.988Z,5.00
2017-07-19T12:15:15.901Z,5.00
2017-07-19T12:17:43.442Z,4.90
2017-07-19T12:20:10.957Z,5.60
2017-07-19T12:22:38.870Z,5.50
2017-07-19T12:25:06.389Z,5.33
2017-07-19T12:27:33.932Z,5.80
2017-07-19T12:30:01.482Z,5.13
2017-07-19T12:32:29.794Z,4.70
2017-07-19T12:34:57.329Z,4.57
2017-07-19T12:37:25.107Z,5.00
2017-07-19T12:39:52.629Z,4.73
2017-07-19T12:42:20.179Z,5.23
2017-07-19T12:44:47.715Z,4.87
2017-07-19T12:47:15.259Z,4.83
2017-07-19T12:49:42.797Z,5.10
2017-07-19T12:52:10.604Z,4.90
2017-07-19T12:54:38.132Z,5.23
2017-07-19T12:57:05.674Z,5.80
2017-07-19T12:59:33.225Z,4.80
2017-07-19T13:02:00.771Z,5.80
2017-07-19T13:04:28.292Z,6.00
2017-07-19T13:06:55.843Z,5.00
2017-07-19T13:09:23.387Z,5.60
2017-07-19T13:11:50.928Z,5.00
2017-07-19T13:14:18.473Z,5.53
2017-07-19T13:16:46.015Z,5.00
2017-07-19T13:19:14.407Z,5.90
2017-07-19T13:21:41.961Z,5.27
2017-07-19T13:24:10.267Z,5.73
2017-07-19T13:26:37.873Z,5.57
2017-07-19T13:29:05.746Z,5.20
2017-07-19T13:31:33.285Z,6.10
2017-07-19T13:34:00.823Z,6.17
2017-07-19T13:36:28.767Z,5.47
2017-07-19T13:38:56.328Z,5.37
2017-07-19T13:41:23.898Z,5.57
2017-07-19T13:43:51.446Z,7.13
2017-07-19T13:46:18.990Z,5.67
2017-07-19T13:48:47.658Z,5.20
2017-07-19T13:51:15.203Z,5.17
2017-07-19T13:53:42.712Z,5.23
2017-07-19T13:56:10.260Z,5.23
2017-07-19T13:58:37.791Z,5.03
2017-07-19T14:01:05.323Z,5.63
2017-07-19T14:03:32.865Z,5.80
2017-07-19T14:06:00.412Z,4.87
2017-07-19T14:08:27.947Z,5.73
2017-07-19T14:10:55.790Z,5.90
2017-07-19T14:13:23.324Z,5.50
2017-07-19T14:15:50.866Z,4.80
2017-07-19T14:18:18.419Z,5.33
2017-07-19T14:20:45.932Z,5.77
2017-07-19T14:23:13.502Z,5.33
2017-07-19T14:25:41.808Z,5.33
2017-07-19T14:28:09.353Z,5.53
2017-07-19T14:30:36.913Z,5.90
2017-07-19T14:33:04.730Z,5.60
2017-07-19T14:35:32.255Z,5.27
2017-07-19T14:37:59.812Z,5.60
2017-07-19T14:40:27.377Z,5.40
2017-07-19T14:45:28.776Z,5.80
2017-07-19T14:47:58.240Z,6.13
2017-07-19T14:50:25.785Z,6.30
2017-07-19T14:52:53.842Z,6.03
2017-07-19T14:55:24.087Z,6.10
2017-07-19T14:57:56.566Z,5.60
2017-07-19T15:00:27.269Z,6.03
2017-07-19T15:02:59.163Z,6.30
2017-07-19T15:05:28.493Z,6.00
2017-07-19T15:07:56.300Z,5.80
2017-07-19T15:10:30.972Z,5.70
2017-07-19T15:12:58.503Z,6.27
2017-07-19T15:15:26.050Z,6.17
2017-07-19T15:17:54.754Z,5.77
2017-07-19T15:20:22.314Z,5.47
2017-07-19T15:22:49.869Z,5.20
2017-07-19T15:25:17.721Z,5.33
2017-07-19T15:27:46.024Z,5.23
2017-07-19T15:30:13.580Z,5.70
2017-07-19T15:32:41.503Z,5.70
2017-07-19T15:35:09.034Z,5.17
2017-07-19T15:37:36.573Z,6.23
2017-07-19T15:40:04.156Z,5.47
2017-07-19T15:42:31.690Z,5.30
2017-07-19T15:44:59.241Z,5.23
2017-07-19T15:47:26.818Z,5.40
2017-07-19T15:49:54.398Z,4.93
2017-07-19T15:52:21.918Z,5.60
2017-07-19T15:54:49.460Z,4.90
2017-07-19T15:57:17.773Z,6.47
2017-07-19T15:59:45.328Z,5.80
2017-07-19T16:02:13.247Z,5.07
2017-07-19T16:04:41.559Z,5.27
2017-07-19T16:07:09.133Z,5.10
2017-07-19T16:09:36.680Z,5.23
2017-07-19T16:12:04.219Z,5.13
2017-07-19T16:14:31.766Z,5.30
2017-07-19T16:17:00.050Z,5.50
2017-07-19T16:19:28.356Z,5.20
2017-07-19T16:21:55.895Z,5.50
2017-07-19T16:24:23.445Z,5.33
2017-07-19T16:26:51.761Z,5.10
2017-07-19T16:29:19.354Z,6.73
2017-07-19T16:31:46.895Z,6.00
2017-07-19T16:34:14.449Z,5.77
2017-07-19T16:36:41.980Z,4.83
2017-07-19T16:39:10.587Z,4.80
2017-07-19T16:41:38.122Z,7.30
2017-07-19T16:44:05.660Z,5.73
2017-07-19T16:46:33.625Z,6.63
2017-07-19T16:49:01.918Z,4.90
2017-07-19T16:51:29.450Z,4.90
2017-07-19T16:53:57.397Z,4.80
2017-07-19T16:56:24.945Z,4.50
2017-07-19T16:58:52.493Z,5.43
2017-07-19T17:01:20.402Z,4.77
2017-07-19T17:03:47.918Z,4.70
2017-07-19T17:06:15.494Z,4.80
2017-07-19T17:08:43.058Z,5.50
2017-07-19T17:11:10.606Z,4.40
2017-07-19T17:13:38.157Z,5.20
2017-07-19T17:16:05.707Z,4.13
2017-07-19T17:18:33.261Z,5.57
2017-07-19T17:21:00.796Z,4.47
2017-07-19T17:23:28.344Z,4.83
2017-07-19T17:25:56.653Z,4.50
2017-07-19T17:28:24.214Z,5.20
2017-07-19T17:30:51.765Z,4.43
2017-07-19T17:33:19.313Z,4.77
2017-07-19T17:35:46.870Z,4.20
2017-07-19T17:38:14.439Z,3.70
2017-07-19T17:40:41.981Z,4.27
2017-07-19T17:43:10.284Z,4.57
2017-07-19T17:45:37.829Z,4.73
2017-07-19T17:48:05.370Z,4.10
2017-07-19T17:50:33.647Z,6.70
2017-07-19T17:53:02.317Z,5.23
2017-07-19T17:55:29.875Z,4.63
2017-07-19T17:57:57.404Z,5.63
2017-07-19T18:00:26.084Z,5.63
2017-07-19T18:02:53.613Z,5.30
2017-07-19T18:05:26.697Z,6.30
2017-07-19T18:07:54.254Z,5.70
2017-07-19T18:10:21.821Z,6.00
2017-07-19T18:12:49.378Z,5.27
2017-07-19T18:15:16.942Z,6.17
2017-07-19T18:17:44.496Z,5.57
2017-07-19T18:20:12.366Z,5.40
2017-07-19T18:22:39.890Z,5.30
2017-07-19T18:25:07.431Z,5.53
2017-07-19T18:27:35.276Z,5.27
2017-07-19T18:30:03.256Z,5.40
2017-07-19T18:32:30.832Z,6.00
2017-07-19T18:34:58.384Z,5.50
2017-07-19T18:37:26.017Z,6.67
2017-07-19T18:39:53.555Z,5.63
2017-07-19T18:42:21.161Z,6.30
2017-07-19T18:44:48.743Z,6.03
2017-07-19T18:47:17.191Z,5.70
2017-07-19T18:49:45.094Z,6.30
2017-07-19T18:52:12.623Z,6.60
2017-07-19T18:54:40.160Z,5.60
2017-07-19T18:57:07.984Z,5.50
2017-07-19T18:59:35.903Z,6.17
2017-07-19T19:02:03.475Z,6.37
2017-07-19T19:04:31.059Z,5.87
2017-07-19T19:06:58.660Z,5.60
2017-07-19T19:09:26.205Z,6.17
2017-07-19T19:11:53.779Z,6.33
2017-07-19T19:14:21.387Z,5.90
2017-07-19T19:16:49.011Z,5.73
2017-07-19T19:19:16.908Z,6.00
2017-07-19T19:21:44.555Z,6.50
2017-07-19T19:24:12.131Z,5.77
2017-07-19T19:26:40.008Z,5.73
2017-07-19T19:29:07.546Z,5.23
2017-07-19T19:31:35.146Z,6.37
2017-07-19T19:34:02.783Z,5.60
2017-07-19T19:36:30.801Z,6.57
2017-07-19T19:38:58.527Z,6.27
2017-07-19T19:41:26.127Z,6.67
2017-07-19T19:43:54.029Z,5.77
2017-07-19T19:46:21.597Z,5.33
2017-07-19T19:48:49.180Z,6.40
2017-07-19T19:51:17.046Z,6.10
2017-07-19T19:53:44.675Z,6.00
2017-07-19T19:56:12.274Z,6.23
2017-07-19T19:58:40.174Z,5.63
2017-07-19T20:01:07.819Z,6.97
2017-07-19T20:03:35.359Z,6.60
2017-07-19T20:06:03.310Z,5.73
2017-07-19T20:08:30.886Z,6.70
2017-07-19T20:10:58.476Z,7.30
2017-07-19T20:13:26.013Z,5.83
2017-07-19T20:15:53.624Z,7.10
2017-07-19T20:18:21.196Z,5.73
2017-07-19T20:20:49.037Z,6.10
2017-07-19T20:23:16.620Z,6.20
2017-07-19T20:25:44.194Z,6.33
2017-07-19T20:28:12.065Z,5.73
2017-07-19T20:30:39.769Z,7.33
2017-07-19T20:33:07.359Z,6.60
2017-07-19T20:35:35.210Z,6.33
2017-07-19T20:38:02.771Z,6.20
2017-07-19T20:40:30.357Z,7.13
2017-07-19T20:42:58.216Z,6.40
2017-07-19T20:45:25.773Z,8.10
2017-07-19T20:47:53.406Z,6.90
2017-07-19T20:50:21.038Z,6.43
2017-07-19T20:52:48.637Z,5.50
2017-07-19T20:55:16.273Z,6.60
2017-07-19T20:57:43.895Z,6.23
2017-07-19T21:00:11.721Z,6.27
2017-07-19T21:02:39.263Z,7.13
2017-07-19T21:05:06.855Z,6.63
2017-07-19T21:07:34.716Z,7.10
2017-07-19T21:10:02.239Z,6.90
2017-07-19T21:12:29.789Z,7.57
2017-07-19T21:14:57.647Z,7.13
2017-07-19T21:17:25.272Z,7.03
2017-07-19T21:19:52.848Z,6.87
2017-07-19T21:22:20.479Z,6.83
2017-07-19T21:24:48.081Z,6.70
2017-07-19T21:27:15.661Z,7.00
2017-07-19T21:29:43.222Z,7.17
2017-07-19T21:32:10.904Z,7.10
2017-07-19T21:34:39.117Z,7.73
2017-07-19T21:37:06.994Z,7.40
2017-07-19T21:39:34.610Z,6.60
2017-07-19T21:42:02.142Z,6.40
2017-07-19T21:44:29.701Z,6.90
2017-07-19T21:46:57.234Z,6.47
2017-07-19T21:49:24.803Z,6.07
2017-07-19T21:51:52.374Z,6.97
2017-07-19T21:54:24.469Z,7.40
2017-07-19T21:56:52.221Z,6.47
2017-07-19T21:59:19.760Z,6.20
2017-07-19T22:01:47.311Z,6.70
2017-07-19T22:04:14.855Z,6.97
2017-07-19T22:06:42.643Z,6.30
2017-07-19T22:09:10.174Z,7.70
2017-07-19T22:11:37.712Z,6.33
2017-07-19T22:14:05.542Z,6.37
2017-07-19T22:16:34.475Z,7.63
2017-07-19T22:19:02.030Z,6.60
2017-07-19T22:21:29.945Z,6.50
2017-07-19T22:23:57.467Z,6.40
2017-07-19T22:26:25.035Z,7.37
2017-07-19T22:28:52.918Z,6.47
2017-07-19T22:31:20.471Z,7.13
2017-07-19T22:33:48.003Z,6.60
2017-07-19T22:36:15.552Z,6.40
2017-07-19T22:38:43.070Z,6.33
2017-07-19T22:41:10.618Z,6.27
2017-07-19T22:43:38.195Z,6.97
2017-07-19T22:46:05.724Z,6.30
2017-07-19T22:48:33.274Z,7.40
2017-07-19T22:51:00.800Z,6.90
2017-07-19T22:53:28.346Z,6.27
2017-07-19T22:55:55.917Z,7.83
2017-07-19T22:58:23.750Z,7.77
2017-07-19T23:00:51.272Z,7.03
2017-07-19T23:03:18.804Z,6.77
2017-07-19T23:05:46.357Z,6.30
2017-07-19T23:08:13.903Z,7.10
2017-07-19T23:10:41.453Z,6.83
2017-07-19T23:13:09.866Z,7.40
2017-07-19T23:15:37.422Z,9.40
2017-07-19T23:18:05.242Z,8.03
2017-07-19T23:20:32.777Z,7.33
2017-07-19T23:23:00.324Z,8.43
2017-07-19T23:25:27.857Z,7.47
2017-07-19T23:27:55.388Z,7.53
2017-07-19T23:30:22.926Z,7.93
2017-07-19T23:32:50.462Z,7.33
2017-07-19T23:35:18.009Z,7.50
2017-07-19T23:37:45.547Z,6.83
2017-07-19T23:40:13.076Z,7.07
2017-07-19T23:42:41.050Z,7.83
2017-07-19T23:45:08.565Z,6.80
2017-07-19T23:47:36.088Z,7.43
2017-07-19T23:50:04.371Z,7.10
2017-07-19T23:52:31.905Z,7.57
2017-07-19T23:54:59.469Z,7.00
2017-07-19T23:57:27.010Z,6.80
2017-07-19T23:59:54.556Z,6.33
